Ancona, Illinois
Current Conditions -  °F | °C
As of 8:15 AM on Saturday 25 Oct 2014 (Local Time) from KPNT Reporting Station
Moderate Fog Moderate Fog  
Wind Chill: 14°   Ceiling: 200
Heat Index: 14°   Visibility: 0.25mi
Dew Point: 14°   Wind: 7mph
Humidity: 100%   Direction: 290°WNW
Pressure: 29.98"   Gusts: NA
Location:  41.04°N, 88.87°W
Report Text: KPNT 251315Z AUTO 29006KT 1/4SM FG OVC002 14/14 A2998 RMK AO2 T01400140
Loading
Personal Weather Stations






























Interactive Weather Map
Tropical Storm Tracking
New forecast layout! Learn more

10-Day Weather Forecast

Advertisements
Track Severe Weather on mobile